Time;durP1;ratioP1;P1;durP2;ratioP2;P2;SDS_P1;SDS_P2;PMS_P1;PMS_P2;Temp;Humidity;BMP_temperature;BMP_pressure;BME280_temperature;BME280_humidity;BME280_pressure;Samples;Min_cycle;Max_cycle;Signal;HPM_P1;HPM_P2
2022/04/30 00:05:14;;;;;;;64.00;26.80;;;;;;;3.21;61.65;100372.30;447686;1269;142196;-65
2022/04/30 00:15:20;;;;;;;48.20;24.90;;;;;;;3.03;61.93;100371.64;447653;1269;143390;-65
2022/04/30 00:25:26;;;;;;;52.40;26.50;;;;;;;2.90;62.07;100367.05;446925;1270;146314;-64
2022/04/30 00:35:33;;;;;;;50.40;26.90;;;;;;;2.76;62.45;100367.48;447966;1267;142377;-63
2022/04/30 00:45:44;;;;;;;44.30;25.00;;;;;;;2.63;62.75;100378.11;448017;1267;143203;-64
2022/04/30 00:55:51;;;;;;;46.60;25.70;;;;;;;2.44;63.21;100372.91;448010;1266;143750;-63
2022/04/30 01:05:58;;;;;;;47.20;25.30;;;;;;;2.34;63.49;100371.70;447970;1266;141474;-63
2022/04/30 01:16:06;;;;;;;44.00;25.10;;;;;;;2.24;63.46;100366.34;447265;1268;142616;-63
2022/04/30 01:26:13;;;;;;;43.90;27.10;;;;;;;2.09;63.97;100362.27;447709;1269;142112;-64
2022/04/30 01:46:41;;;;;;;39.30;25.20;;;;;;;1.93;64.48;100360.80;447407;1268;129592;-63
2022/04/30 01:56:47;;;;;;;40.40;25.00;;;;;;;1.81;64.89;100358.06;447688;1268;144685;-63
2022/04/30 02:06:53;;;;;;;37.70;24.70;;;;;;;1.73;65.05;100358.35;447256;1267;142962;-63
2022/04/30 02:17:01;;;;;;;45.40;26.00;;;;;;;1.63;65.39;100354.34;448025;1265;141795;-63
2022/04/30 02:27:07;;;;;;;42.30;25.40;;;;;;;1.54;65.67;100349.47;447966;1266;142617;-64
2022/04/30 02:37:14;;;;;;;41.90;24.50;;;;;;;1.43;65.93;100344.11;447219;1267;144187;-62
2022/04/30 02:47:20;;;;;;;54.00;26.60;;;;;;;1.34;66.09;100339.74;447991;1267;143699;-63
2022/04/30 02:57:27;;;;;;;45.00;24.80;;;;;;;1.31;66.43;100335.81;447959;1267;142767;-64
2022/04/30 03:07:35;;;;;;;39.50;25.10;;;;;;;1.29;66.54;100336.03;447245;1267;141882;-64
2022/04/30 03:28:05;;;;;;;48.60;25.30;;;;;;;1.45;66.80;100330.96;447241;1267;143430;-63
2022/04/30 03:38:11;;;;;;;46.50;28.50;;;;;;;1.77;66.38;100331.18;447952;1267;143407;-63
2022/04/30 03:48:17;;;;;;;49.80;25.40;;;;;;;2.12;66.30;100325.27;447957;1267;142101;-64
2022/04/30 03:58:23;;;;;;;48.60;30.20;;;;;;;2.48;65.86;100321.17;446933;1269;143035;-64
2022/04/30 04:08:28;;;;;;;41.80;27.70;;;;;;;2.97;65.42;100320.73;447952;1266;143094;-63
2022/04/30 04:18:34;;;;;;;49.60;27.50;;;;;;;3.56;65.12;100327.59;447950;1266;141946;-63
2022/04/30 04:28:40;;;;;;;46.70;31.40;;;;;;;4.32;64.94;100336.30;447186;1266;142389;-63
2022/04/30 04:38:46;;;;;;;48.70;30.00;;;;;;;5.04;64.46;100335.36;447921;1266;142426;-64
2022/04/30 04:48:52;;;;;;;41.80;28.90;;;;;;;6.07;63.10;100334.30;447170;1266;154003;-62
2022/04/30 04:58:58;;;;;;;39.60;28.90;;;;;;;7.24;61.61;100330.49;447839;1268;142788;-63
2022/04/30 05:09:04;;;;;;;36.40;27.80;;;;;;;12.59;59.18;100324.92;447887;1267;142108;-64
2022/04/30 05:19:10;;;;;;;33.60;25.10;;;;;;;22.09;47.51;100310.16;447177;1267;142878;-64
2022/04/30 05:29:16;;;;;;;29.60;23.40;;;;;;;26.09;38.68;100304.23;448000;1267;142927;-63
2022/04/30 05:39:22;;;;;;;30.80;23.30;;;;;;;28.02;33.40;100287.77;447986;1266;143145;-63
2022/04/30 05:49:28;;;;;;;24.30;21.40;;;;;;;28.02;31.27;100288.64;447189;1267;143004;-63
2022/04/30 05:59:33;;;;;;;28.50;21.70;;;;;;;31.64;28.52;100282.08;447965;1267;143803;-64
2022/04/30 06:09:38;;;;;;;;;;;;;;;33.20;25.45;100288.10;447925;1267;142917;-64
2022/04/30 06:19:43;;;;;;;29.00;18.60;;;;;;;31.42;24.19;100286.67;447280;1268;130163;-64
2022/04/30 06:29:51;;;;;;;25.30;18.90;;;;;;;31.59;24.04;100285.31;448035;1267;153595;-64
2022/04/30 06:39:57;;;;;;;21.40;17.40;;;;;;;33.04;22.91;100282.02;447108;1267;144117;-67
2022/04/30 06:50:03;;;;;;;17.40;15.50;;;;;;;37.82;20.74;100279.29;447841;1268;142500;-66
2022/04/30 07:10:31;;;;;;;11.60;8.40;;;;;;;39.79;16.94;100270.13;447220;1267;142381;-63
2022/04/30 07:20:36;;;;;;;1.80;1.40;;;;;;;40.99;15.44;100275.16;447943;1267;142210;-66
2022/04/30 07:30:43;;;;;;;2.10;1.20;;;;;;;37.76;14.02;100275.09;447972;1267;144054;-61
2022/04/30 07:40:49;;;;;;;1.60;1.20;;;;;;;33.14;14.54;100271.61;447872;1267;143001;-67
2022/04/30 07:50:57;;;;;;;5.20;1.30;;;;;;;32.21;14.86;100263.48;447951;1267;143743;-68
2022/04/30 08:01:03;;;;;;;2.50;1.70;;;;;;;30.20;15.46;100271.52;447081;1268;142757;-69
2022/04/30 08:11:10;;;;;;;3.00;1.90;;;;;;;28.71;15.96;100260.43;447838;1267;142266;-65
2022/04/30 08:21:15;;;;;;;7.00;1.50;;;;;;;26.39;16.81;100261.89;447932;1267;142719;-66
2022/04/30 08:31:21;;;;;;;4.60;1.50;;;;;;;24.72;18.22;100273.61;447121;1267;143692;-64
2022/04/30 08:41:27;;;;;;;2.50;1.20;;;;;;;24.74;18.86;100274.79;447976;1266;141570;-63
2022/04/30 08:51:33;;;;;;;2.20;1.20;;;;;;;24.06;18.74;100272.41;447973;1267;141943;-67
2022/04/30 09:01:47;;;;;;;2.20;1.50;;;;;;;23.69;18.92;100268.11;447166;1267;144657;-65
2022/04/30 09:11:56;;;;;;;2.30;1.40;;;;;;;23.25;19.24;100267.44;448053;1268;141878;-68
2022/04/30 09:22:02;;;;;;;4.10;1.50;;;;;;;22.28;19.77;100267.65;447191;1268;142705;-69
2022/04/30 09:32:09;;;;;;;4.80;1.50;;;;;;;21.74;20.40;100261.65;447958;1268;145017;-68
2022/04/30 09:42:15;;;;;;;3.20;1.50;;;;;;;22.16;20.65;100249.75;447698;1270;142004;-68
2022/04/30 10:02:45;;;;;;;2.20;1.30;;;;;;;21.25;20.77;100249.53;447942;1266;142212;-67
2022/04/30 10:13:01;;;;;;;1.30;1.20;;;;;;;20.92;20.09;100244.97;447225;1268;153280;-61
2022/04/30 10:23:07;;;;;;;4.10;1.40;;;;;;;20.66;19.64;100240.27;448026;1267;144084;-63
2022/04/30 10:33:13;;;;;;;2.10;1.30;;;;;;;20.91;20.22;100232.75;448036;1268;142254;-63
2022/04/30 10:43:26;;;;;;;3.20;1.80;;;;;;;20.70;20.41;100227.50;447195;1266;141913;-63
2022/04/30 10:53:35;;;;;;;3.50;2.20;;;;;;;19.94;21.14;100224.44;448026;1268;143850;-62
2022/04/30 11:03:41;;;;;;;6.70;2.40;;;;;;;19.81;21.91;100227.23;447951;1268;141526;-64
2022/04/30 11:13:56;;;;;;;4.10;2.40;;;;;;;19.77;22.51;100215.84;447270;1267;144701;-64
2022/04/30 11:24:03;;;;;;;4.00;2.50;;;;;;;20.09;22.63;100196.95;447976;1267;141316;-61
2022/04/30 11:34:13;;;;;;;5.90;1.90;;;;;;;20.15;22.35;100191.46;447255;1267;192543;-63
2022/04/30 11:44:20;;;;;;;6.90;2.40;;;;;;;19.65;22.17;100179.52;447899;1266;142685;-61
2022/04/30 11:54:28;;;;;;;4.70;1.80;;;;;;;19.36;21.88;100177.40;447885;1268;191875;-61
2022/04/30 12:04:41;;;;;;;2.90;2.40;;;;;;;19.03;21.85;100170.54;447250;1267;142575;-60
2022/04/30 12:14:48;;;;;;;1.30;1.20;;;;;;;19.09;21.32;100159.59;447787;1267;142779;-62
2022/04/30 12:24:57;;;;;;;2.20;0.80;;;;;;;19.11;20.87;100156.52;447040;1266;141300;-62
2022/04/30 12:35:03;;;;;;;2.30;0.80;;;;;;;19.24;20.86;100155.08;447878;1267;141447;-62
2022/04/30 12:45:10;;;;;;;0.50;0.50;;;;;;;18.96;20.29;100160.35;447815;1267;142483;-62
2022/04/30 12:55:18;;;;;;;1.40;0.50;;;;;;;19.09;20.18;100140.23;447150;1267;142231;-63
2022/04/30 13:05:25;;;;;;;2.20;0.60;;;;;;;19.33;20.29;100126.92;447793;1267;141310;-66
2022/04/30 13:15:31;;;;;;;4.90;1.40;;;;;;;19.24;20.14;100128.02;447894;1266;144447;-63
2022/04/30 13:25:38;;;;;;;1.40;1.10;;;;;;;19.42;20.90;100114.66;447279;1267;141836;-62
2022/04/30 13:35:44;;;;;;;5.40;0.90;;;;;;;19.23;21.35;100105.04;447928;1267;142021;-61
2022/04/30 13:45:50;;;;;;;2.60;1.60;;;;;;;19.11;21.78;100098.02;447193;1267;143996;-64
2022/04/30 13:55:57;;;;;;;3.20;1.40;;;;;;;18.94;22.24;100093.48;448039;1267;141654;-63
2022/04/30 14:06:03;;;;;;;4.90;0.90;;;;;;;18.79;22.58;100086.65;447997;1267;141854;-63
2022/04/30 14:16:09;;;;;;;5.30;2.50;;;;;;;18.73;23.00;100073.02;447257;1267;143448;-63
2022/04/30 14:26:15;;;;;;;3.70;0.90;;;;;;;18.69;22.96;100069.50;448013;1267;142370;-62
2022/04/30 14:36:22;;;;;;;4.70;1.40;;;;;;;18.73;22.80;100063.78;447995;1267;141349;-63
2022/04/30 14:46:27;;;;;;;2.80;1.20;;;;;;;18.52;22.92;100059.30;447202;1266;142426;-64
2022/04/30 14:56:33;;;;;;;4.90;1.40;;;;;;;18.34;23.06;100054.70;447939;1266;141333;-63
2022/04/30 15:06:39;;;;;;;2.90;1.70;;;;;;;18.20;23.18;100040.69;448017;1267;143402;-68
2022/04/30 15:16:45;;;;;;;3.00;1.80;;;;;;;18.03;24.24;100042.94;447162;1266;142087;-60
2022/04/30 15:26:52;;;;;;;2.70;2.20;;;;;;;17.61;25.04;100040.14;447928;1267;142641;-62
2022/04/30 15:36:58;;;;;;;4.30;2.30;;;;;;;17.30;25.46;100043.98;447137;1267;141610;-61
2022/04/30 15:57:29;;;;;;;4.00;1.80;;;;;;;16.80;25.93;100033.98;447991;1266;141222;-62
2022/04/30 16:07:36;;;;;;;3.90;2.40;;;;;;;16.69;26.00;100037.36;446979;1269;145022;-61
2022/04/30 16:17:42;;;;;;;3.10;2.10;;;;;;;16.55;26.07;100030.50;448024;1266;141816;-62
2022/04/30 16:27:49;;;;;;;3.40;2.30;;;;;;;16.33;26.42;100024.73;447575;1265;143400;-63
2022/04/30 16:37:55;;;;;;;5.20;2.90;;;;;;;16.05;27.24;100021.45;447691;1266;213700;-62
2022/04/30 16:48:01;;;;;;;3.90;2.80;;;;;;;15.73;27.71;100024.15;447920;1267;141758;-64
2022/04/30 16:58:08;;;;;;;4.40;3.00;;;;;;;15.42;28.06;100026.70;446905;1267;143953;-51
2022/04/30 17:08:38;;;;;;;5.10;2.30;;;;;;;15.04;28.79;100040.87;447757;1265;141290;-54
2022/04/30 17:19:04;;;;;;;3.80;3.10;;;;;;;14.62;29.49;100038.61;446932;1269;142076;-54
2022/04/30 17:29:29;;;;;;;6.50;3.70;;;;;;;14.27;30.03;100038.36;448004;1267;141084;-54
2022/04/30 17:39:53;;;;;;;3.50;2.40;;;;;;;13.96;30.60;100039.67;447191;1267;141524;-54
2022/04/30 17:50:17;;;;;;;3.90;2.20;;;;;;;13.66;30.92;100043.34;447973;1267;141881;-55
2022/04/30 18:00:42;;;;;;;3.50;3.00;;;;;;;13.42;31.52;100045.29;447678;1269;141360;-53
2022/04/30 18:11:06;;;;;;;4.00;2.60;;;;;;;13.24;32.05;100060.42;448035;1267;142037;-53
2022/04/30 18:21:30;;;;;;;4.30;2.60;;;;;;;12.97;32.80;100065.03;447910;1267;141826;-53
2022/04/30 18:31:59;;;;;;;4.00;3.50;;;;;;;12.70;33.46;100072.02;447931;1266;141749;-54
2022/04/30 18:42:25;;;;;;;6.70;3.60;;;;;;;12.45;34.16;100076.13;447775;1270;143318;-54
2022/04/30 18:52:49;;;;;;;3.30;2.90;;;;;;;12.17;34.72;100074.52;447923;1267;141917;-54
2022/04/30 19:03:14;;;;;;;3.80;2.80;;;;;;;11.97;35.29;100076.41;447934;1266;141464;-53
2022/04/30 19:13:40;;;;;;;7.10;3.10;;;;;;;11.73;35.81;100093.48;447208;1267;143142;-55
2022/04/30 19:24:05;;;;;;;8.30;4.50;;;;;;;11.54;36.53;100085.33;448021;1268;142940;-54
2022/04/30 19:34:30;;;;;;;9.30;6.00;;;;;;;11.44;37.12;100092.58;447212;1267;146042;-57
2022/04/30 19:44:54;;;;;;;11.60;6.60;;;;;;;11.37;37.51;100093.38;448019;1268;143411;-53
2022/04/30 19:55:18;;;;;;;10.20;6.10;;;;;;;11.24;37.84;100084.83;447203;1267;142224;-55
2022/04/30 20:05:42;;;;;;;9.10;6.70;;;;;;;11.10;38.17;100082.14;448041;1268;142212;-54
2022/04/30 20:26:51;;;;;;;7.30;5.30;;;;;;;10.75;38.53;100085.35;448042;1267;143046;-51
2022/04/30 20:37:16;;;;;;;7.80;6.40;;;;;;;10.53;38.78;100082.19;446990;1270;142133;-54
2022/04/30 20:47:40;;;;;;;12.00;7.00;;;;;;;10.34;39.15;100078.83;448002;1267;140987;-53
2022/04/30 20:58:04;;;;;;;8.10;4.70;;;;;;;10.02;39.52;100079.84;447159;1268;143524;-64
2022/04/30 21:08:28;;;;;;;10.80;6.80;;;;;;;9.68;40.07;100078.51;447983;1267;141437;-67
2022/04/30 21:26:42;;;;;;;11.90;6.50;;;;;;;9.30;41.58;100081.48;424762;1310;2692526;-65
2022/04/30 21:37:07;;;;;;;10.60;5.90;;;;;;;8.85;43.92;100081.62;442205;1283;298650;-64
2022/04/30 21:47:31;;;;;;;10.90;6.90;;;;;;;8.37;45.27;100084.36;443290;1282;141213;-62
2022/04/30 22:08:38;;;;;;;13.00;9.40;;;;;;;7.48;47.39;100095.45;443394;1282;139605;-61
2022/04/30 22:19:03;;;;;;;31.40;11.10;;;;;;;7.12;48.33;100088.80;440232;1282;140890;-61
2022/04/30 22:29:31;;;;;;;17.30;11.30;;;;;;;6.86;50.06;100084.60;426691;1283;140742;-64
2022/04/30 23:01:38;;;;;;;20.90;12.10;;;;;;;6.22;52.23;100076.52;377962;1294;954533;-61
2022/04/30 23:12:09;;;;;;;24.10;13.20;;;;;;;6.00;53.26;100067.40;423619;1297;74169;-59
2022/04/30 23:22:35;;;;;;;26.40;15.60;;;;;;;5.75;53.75;100067.41;423729;1299;59785;-60
2022/04/30 23:33:03;;;;;;;17.20;12.90;;;;;;;5.51;54.51;100067.74;420727;1300;141094;-60
2022/04/30 23:43:08;;;;;;;22.60;13.40;;;;;;;5.27;55.27;100065.45;421643;1300;140548;-61
2022/04/30 23:53:14;;;;;;;34.30;16.60;;;;;;;4.99;55.81;100061.68;421577;1298;141684;-60
